Time;durP1;ratioP1;P1;durP2;ratioP2;P2;SDS_P1;SDS_P2;PMS_P1;PMS_P2;Temp;Humidity;BMP_temperature;BMP_pressure;BME280_temperature;BME280_humidity;BME280_pressure;Samples;Min_cycle;Max_cycle;Signal;HPM_P1;HPM_P2
2022/07/04 00:01:27;;;;;;;10.32;9.10;;;;;;;17.43;68.04;97322.08;1693314;83;27251;-78
2022/07/04 00:03:54;;;;;;;10.82;9.73;;;;;;;17.42;68.08;97319.06;1693876;84;25712;-78
2022/07/04 00:06:20;;;;;;;10.53;9.48;;;;;;;17.40;68.06;97317.67;1693949;84;25799;-77
2022/07/04 00:08:47;;;;;;;14.60;9.73;;;;;;;17.35;68.05;97314.37;1693843;84;26096;-78
2022/07/04 00:11:14;;;;;;;10.63;9.63;;;;;;;17.29;68.12;97318.11;1693793;84;25795;-77
2022/07/04 00:13:40;;;;;;;9.73;8.83;;;;;;;17.27;68.28;97309.34;1693914;84;28113;-77
2022/07/04 00:16:07;;;;;;;11.80;9.78;;;;;;;17.24;68.38;97309.88;1693654;84;25679;-76
2022/07/04 00:18:33;;;;;;;10.65;9.53;;;;;;;17.20;68.38;97306.83;1693976;84;25719;-76
2022/07/04 00:21:00;;;;;;;10.93;9.83;;;;;;;17.10;68.34;97308.63;1693788;84;25699;-76
2022/07/04 00:23:27;;;;;;;9.85;8.93;;;;;;;17.04;68.60;97305.54;1693974;84;25673;-77
2022/07/04 00:25:53;;;;;;;10.45;9.45;;;;;;;17.05;68.71;97308.55;1693833;84;27441;-78
2022/07/04 00:28:20;;;;;;;11.48;9.15;;;;;;;17.02;68.73;97300.91;1693636;84;26068;-76
2022/07/04 00:30:46;;;;;;;10.40;9.43;;;;;;;16.88;68.70;97301.29;1693853;84;26312;-76
2022/07/04 00:33:13;;;;;;;9.35;8.45;;;;;;;16.81;68.92;97302.00;1693950;84;25518;-77
2022/07/04 00:35:40;;;;;;;12.28;9.33;;;;;;;16.76;68.98;97303.85;1693774;84;25703;-76
2022/07/04 00:38:07;;;;;;;13.00;9.23;;;;;;;16.71;69.23;97297.78;1693805;84;27419;-78
2022/07/04 00:40:33;;;;;;;11.25;9.90;;;;;;;16.72;69.31;97299.44;1693831;84;25735;-76
2022/07/04 00:43:04;;;;;;;10.65;9.53;;;;;;;16.75;69.38;97302.20;1693860;84;25733;-76
2022/07/04 00:45:31;;;;;;;15.15;10.13;;;;;;;16.75;69.39;97298.94;1693744;84;26115;-76
2022/07/04 00:47:58;;;;;;;10.53;9.45;;;;;;;16.76;69.34;97298.41;1693435;84;25747;-76
2022/07/04 00:50:25;;;;;;;10.28;9.28;;;;;;;16.72;69.25;97296.71;1693672;84;27423;-76
2022/07/04 00:52:53;;;;;;;11.83;9.33;;;;;;;16.71;69.24;97295.06;1693663;84;25506;-78
2022/07/04 00:55:23;;;;;;;11.45;9.53;;;;;;;16.67;69.20;97289.82;1693830;84;25819;-76
2022/07/04 00:57:49;;;;;;;10.20;9.20;;;;;;;16.64;69.26;97292.25;1693788;84;25735;-76
2022/07/04 01:00:18;;;;;;;10.50;9.50;;;;;;;16.59;69.32;97292.96;1702333;83;25735;-76
2022/07/04 01:02:45;;;;;;;10.30;9.20;;;;;;;16.56;69.30;97289.37;1702759;84;28071;-77
2022/07/04 01:05:14;;;;;;;10.08;9.03;;;;;;;16.53;69.36;97290.72;1702602;84;26050;-78
2022/07/04 01:07:40;;;;;;;10.32;9.23;;;;;;;16.48;69.35;97292.53;1702591;84;25791;-76
2022/07/04 01:10:08;;;;;;;9.68;8.75;;;;;;;16.45;69.51;97294.39;1702678;84;25728;-76
2022/07/04 01:12:35;;;;;;;12.60;9.33;;;;;;;16.42;69.50;97292.99;1702941;83;25747;-77
2022/07/04 01:15:02;;;;;;;10.55;8.40;;;;;;;16.38;69.49;97292.41;1702491;84;27430;-78
2022/07/04 01:17:28;;;;;;;10.72;9.63;;;;;;;16.35;69.58;97296.98;1702744;84;25696;-76
2022/07/04 01:19:55;;;;;;;10.50;9.53;;;;;;;16.30;69.57;97295.00;1702758;84;25695;-77
2022/07/04 01:22:22;;;;;;;10.25;9.08;;;;;;;16.26;69.64;97294.41;1703046;84;26147;-77
2022/07/04 01:24:50;;;;;;;13.48;9.30;;;;;;;16.20;69.66;97295.67;1702991;84;25776;-77
2022/07/04 01:27:17;;;;;;;13.10;9.95;;;;;;;16.17;69.80;97290.75;1702808;84;27359;-80
2022/07/04 01:29:45;;;;;;;11.50;9.40;;;;;;;16.13;69.78;97293.67;1702695;84;25797;-76
2022/07/04 01:32:12;;;;;;;10.38;9.38;;;;;;;16.09;69.89;97291.16;1702747;84;25799;-76
2022/07/04 01:34:38;;;;;;;11.15;9.30;;;;;;;16.06;69.94;97290.28;1702773;84;25712;-77
2022/07/04 01:37:06;;;;;;;10.38;9.38;;;;;;;16.01;70.00;97287.50;1702773;84;25760;-76
2022/07/04 01:39:32;;;;;;;12.15;9.85;;;;;;;15.98;70.08;97283.91;1684064;84;27438;-76
2022/07/04 01:41:59;;;;;;;11.00;8.95;;;;;;;15.95;70.02;97286.30;1700569;84;25676;-76
2022/07/04 01:44:25;;;;;;;11.45;9.50;;;;;;;15.91;70.10;97284.62;1700629;84;25960;-76
2022/07/04 01:46:52;;;;;;;10.65;9.55;;;;;;;15.87;70.25;97290.80;1700480;84;25770;-76
2022/07/04 01:49:19;;;;;;;10.95;9.85;;;;;;;15.84;70.26;97291.58;1700581;84;25687;-76
2022/07/04 01:51:51;;;;;;;10.23;9.23;;;;;;;15.80;70.33;97298.61;1700667;84;27353;-77
2022/07/04 01:54:17;;;;;;;10.72;9.60;;;;;;;15.78;70.38;97308.91;1700534;84;25790;-77
2022/07/04 01:56:45;;;;;;;10.30;8.80;;;;;;;15.73;70.37;97313.43;1700276;84;25723;-76
2022/07/04 01:59:12;;;;;;;13.50;9.33;;;;;;;15.67;70.40;97325.31;1700193;84;25487;-75
2022/07/04 02:01:38;;;;;;;11.73;9.63;;;;;;;15.64;70.54;97316.27;1697357;84;25737;-76
2022/07/04 02:04:07;;;;;;;10.03;9.03;;;;;;;15.66;70.61;97316.86;1697310;84;27597;-76
2022/07/04 02:06:35;;;;;;;10.00;9.00;;;;;;;15.62;70.49;97311.61;1697215;84;25859;-76
2022/07/04 02:14:32;;;;;;;12.82;10.18;;;;;;;15.47;70.68;97314.31;1668323;85;25836;-76
2022/07/04 02:16:59;;;;;;;9.95;9.05;;;;;;;15.41;70.78;97311.75;1665484;86;27410;-77
2022/07/04 02:19:26;;;;;;;11.00;9.90;;;;;;;15.38;70.90;97310.87;1665373;86;25771;-76
2022/07/04 02:21:52;;;;;;;14.40;10.48;;;;;;;15.35;71.00;97312.72;1668546;85;25724;-76
2022/07/04 02:24:19;;;;;;;9.98;9.08;;;;;;;15.33;71.13;97314.34;1665581;86;25771;-76
2022/07/04 02:26:47;;;;;;;11.22;10.13;;;;;;;15.32;71.17;97320.02;1665387;86;25868;-77
2022/07/04 02:29:14;;;;;;;11.05;9.98;;;;;;;15.28;71.18;97321.03;1665631;86;28060;-76
2022/07/04 02:31:41;;;;;;;13.25;10.23;;;;;;;15.23;71.35;97329.08;1665330;86;25898;-77
2022/07/04 02:34:08;;;;;;;10.82;9.80;;;;;;;15.22;71.40;97326.06;1665700;86;25802;-77
2022/07/04 02:36:35;;;;;;;12.75;10.43;;;;;;;15.21;71.45;97325.80;1665367;86;25625;-76
2022/07/04 02:39:02;;;;;;;10.82;9.78;;;;;;;15.22;71.47;97330.68;1665706;86;25731;-76
2022/07/04 02:41:28;;;;;;;11.28;9.43;;;;;;;15.22;71.44;97336.95;1665304;86;27557;-76
2022/07/04 02:43:55;;;;;;;13.22;10.30;;;;;;;15.24;71.46;97330.73;1668308;85;26552;-77
2022/07/04 02:46:22;;;;;;;11.73;9.75;;;;;;;15.26;71.47;97339.48;1665468;86;25852;-76
2022/07/04 02:48:49;;;;;;;12.63;10.03;;;;;;;15.26;71.48;97332.69;1665152;86;26333;-76
2022/07/04 02:51:16;;;;;;;10.23;9.20;;;;;;;15.26;71.42;97334.05;1665439;86;25895;-76
2022/07/04 02:53:42;;;;;;;11.03;9.90;;;;;;;15.23;71.46;97329.08;1665453;86;28100;-77
2022/07/04 02:56:09;;;;;;;11.35;10.25;;;;;;;15.21;71.46;97336.69;1668494;85;25853;-76
2022/07/04 02:58:36;;;;;;;12.47;10.05;;;;;;;15.19;71.48;97339.34;1665363;86;25744;-78
2022/07/04 03:01:02;;;;;;;10.30;9.30;;;;;;;15.14;71.64;97337.34;1665042;86;25595;-76
2022/07/04 03:03:29;;;;;;;14.23;9.78;;;;;;;15.13;71.67;97345.20;1668512;85;25482;-77
2022/07/04 03:05:55;;;;;;;9.75;8.83;;;;;;;15.10;71.63;97341.06;1666795;85;27534;-76
2022/07/04 03:08:22;;;;;;;10.90;9.65;;;;;;;15.09;71.59;97342.70;1679261;85;25684;-76
2022/07/04 03:10:52;;;;;;;11.33;9.48;;;;;;;15.05;71.57;97342.88;1679618;85;25685;-76
2022/07/04 03:13:19;;;;;;;14.78;9.98;;;;;;;15.02;71.56;97343.34;1679397;85;25736;-76
2022/07/04 03:15:46;;;;;;;10.63;9.63;;;;;;;15.00;71.65;97349.55;1679544;85;25663;-76
2022/07/04 03:18:13;;;;;;;10.85;9.75;;;;;;;14.99;71.79;97349.26;1679416;85;27644;-76
2022/07/04 03:20:39;;;;;;;12.63;10.38;;;;;;;14.98;71.85;97343.00;1679527;85;25843;-76
2022/07/04 03:23:06;;;;;;;11.28;9.90;;;;;;;14.98;71.85;97340.81;1679390;85;25730;-76
2022/07/04 03:25:33;;;;;;;12.65;9.80;;;;;;;14.95;71.92;97338.59;1679582;85;25680;-76
2022/07/04 03:27:59;;;;;;;13.13;10.03;;;;;;;14.94;71.94;97341.02;1679635;85;25712;-76
2022/07/04 03:30:26;;;;;;;11.30;10.10;;;;;;;14.92;72.01;97337.71;1679597;85;27388;-75
2022/07/04 03:32:52;;;;;;;12.05;9.60;;;;;;;14.92;72.04;97349.41;1679326;85;25653;-76
2022/07/04 03:35:19;;;;;;;12.58;9.75;;;;;;;14.89;72.12;97339.55;1679602;85;25779;-76
2022/07/04 03:37:46;;;;;;;11.63;9.85;;;;;;;14.90;72.17;97341.20;1679467;85;26131;-77
2022/07/04 03:40:12;;;;;;;11.83;9.68;;;;;;;14.92;72.23;97341.25;1679400;85;26401;-77
2022/07/04 03:42:39;;;;;;;11.73;10.15;;;;;;;14.89;72.20;97327.31;1679671;85;28209;-76
2022/07/04 03:45:07;;;;;;;11.78;9.60;;;;;;;14.89;72.31;97330.86;1679018;85;25261;-75
2022/07/04 03:47:34;;;;;;;12.10;10.90;;;;;;;14.92;72.37;97326.84;1679520;85;25680;-75
2022/07/04 03:50:00;;;;;;;12.13;10.80;;;;;;;14.93;72.41;97329.85;1679488;85;25738;-75
2022/07/04 03:52:27;;;;;;;12.20;10.82;;;;;;;14.93;72.53;97332.57;1679710;85;25785;-76
2022/07/04 03:54:54;;;;;;;14.20;11.90;;;;;;;14.97;72.75;97335.91;1679468;85;27578;-78
2022/07/04 03:57:20;;;;;;;15.65;12.15;;;;;;;15.01;72.86;97338.98;1679420;85;25914;-76
2022/07/04 03:59:47;;;;;;;13.20;11.15;;;;;;;15.06;72.85;97333.66;1679293;84;25723;-76
2022/07/04 04:02:13;;;;;;;15.80;11.80;;;;;;;15.11;72.90;97335.09;1669299;85;26085;-78
2022/07/04 04:07:26;;;;;;;13.80;10.70;;;;;;;15.21;72.93;97335.86;1679286;85;27413;-78
2022/07/04 04:09:53;;;;;;;14.50;11.28;;;;;;;15.23;72.99;97337.23;1679273;85;25818;-78
2022/07/04 04:12:19;;;;;;;14.63;11.80;;;;;;;15.26;73.03;97334.05;1679490;85;25733;-78
2022/07/04 04:14:46;;;;;;;18.48;11.93;;;;;;;15.31;73.08;97332.80;1679449;85;25654;-77
2022/07/04 04:17:12;;;;;;;12.53;10.78;;;;;;;15.37;73.08;97342.69;1679239;85;25905;-77
2022/07/04 04:19:39;;;;;;;12.33;11.12;;;;;;;15.44;73.13;97340.66;1679411;85;27362;-77
2022/07/04 04:22:05;;;;;;;14.50;11.70;;;;;;;15.49;73.20;97340.73;1679356;85;26429;-76
2022/07/04 04:24:32;;;;;;;15.60;12.43;;;;;;;15.54;73.19;97341.37;1679458;85;25730;-76
2022/07/04 04:26:58;;;;;;;12.75;11.45;;;;;;;15.59;73.21;97342.02;1679304;85;26312;-77
2022/07/04 04:29:25;;;;;;;13.58;12.15;;;;;;;15.63;73.25;97341.83;1679464;85;25696;-77
2022/07/04 04:31:52;;;;;;;14.43;11.88;;;;;;;15.67;73.26;97334.84;1679409;85;27433;-78
2022/07/04 04:34:18;;;;;;;16.27;12.03;;;;;;;15.72;73.33;97338.45;1679418;85;25706;-77
2022/07/04 04:36:45;;;;;;;14.70;11.45;;;;;;;15.76;73.35;97335.55;1679338;85;25985;-77
2022/07/04 04:39:11;;;;;;;13.20;11.70;;;;;;;15.82;73.48;97329.63;1679382;85;25502;-78
2022/07/04 04:41:38;;;;;;;14.83;11.38;;;;;;;15.89;73.48;97334.94;1679506;85;25740;-79
2022/07/04 04:44:05;;;;;;;12.88;11.48;;;;;;;15.95;73.51;97333.93;1697244;83;28190;-77
2022/07/04 04:46:32;;;;;;;16.32;12.15;;;;;;;16.02;73.56;97336.80;1710298;83;25733;-77
2022/07/04 04:48:58;;;;;;;19.48;13.13;;;;;;;16.08;73.63;97331.70;1705068;83;25710;-77
2022/07/04 04:51:25;;;;;;;15.78;13.32;;;;;;;16.16;73.62;97332.67;1712817;83;25728;-77
2022/07/04 04:53:51;;;;;;;18.10;13.72;;;;;;;16.25;73.59;97334.97;1710127;83;26410;-77
2022/07/04 04:56:18;;;;;;;19.23;12.93;;;;;;;16.33;73.62;97338.09;1710387;83;27396;-77
2022/07/04 04:58:45;;;;;;;20.20;13.00;;;;;;;16.41;73.66;97336.86;1728388;82;25742;-77
2022/07/04 05:01:11;;;;;;;14.15;12.65;;;;;;;16.47;73.71;97333.11;1717214;83;25773;-77
2022/07/04 05:03:38;;;;;;;18.25;13.72;;;;;;;16.53;73.63;97332.13;1742565;81;25788;-78
2022/07/04 05:06:04;;;;;;;16.90;13.08;;;;;;;16.60;73.70;97323.23;1745273;82;25852;-77
2022/07/04 05:08:31;;;;;;;13.62;12.23;;;;;;;16.70;73.65;97328.84;1745209;82;28200;-78
2022/07/04 05:10:57;;;;;;;16.82;12.70;;;;;;;16.78;73.53;97328.42;1744983;81;26458;-77
2022/07/04 05:13:24;;;;;;;15.48;13.43;;;;;;;16.87;73.48;97340.53;1744995;82;25674;-76
2022/07/04 05:15:51;;;;;;;17.95;13.10;;;;;;;16.95;73.37;97344.70;1744902;82;25762;-77
2022/07/04 05:18:17;;;;;;;19.75;13.38;;;;;;;17.04;73.47;97339.63;1744928;82;26374;-77
2022/07/04 05:20:44;;;;;;;16.12;12.88;;;;;;;17.14;73.50;97332.95;1745249;82;28043;-76
2022/07/04 05:23:11;;;;;;;13.00;11.70;;;;;;;17.25;73.57;97330.63;1745083;82;26640;-77
2022/07/04 05:25:38;;;;;;;15.88;12.88;;;;;;;17.36;73.44;97331.56;1745127;82;25718;-78
2022/07/04 05:28:05;;;;;;;15.58;12.10;;;;;;;17.45;73.34;97332.20;1745241;82;25704;-77
2022/07/04 05:30:32;;;;;;;17.82;13.50;;;;;;;17.54;73.17;97326.56;1745243;82;25428;-75
2022/07/04 05:33:00;;;;;;;15.35;12.65;;;;;;;17.64;73.00;97332.69;1745382;82;27340;-75
2022/07/04 05:35:27;;;;;;;17.73;11.80;;;;;;;17.70;72.73;97326.75;1745330;82;25757;-76
2022/07/04 05:37:54;;;;;;;15.10;12.00;;;;;;;17.76;72.50;97327.06;1745235;82;25758;-75
2022/07/04 05:42:49;;;;;;;14.50;12.13;;;;;;;17.90;72.37;97321.47;1683465;85;25809;-76
2022/07/04 05:45:16;;;;;;;13.78;11.25;;;;;;;17.98;72.48;97316.38;1683471;85;27650;-77
2022/07/04 05:47:44;;;;;;;15.78;11.88;;;;;;;18.06;72.40;97310.13;1683338;85;25871;-75
2022/07/04 05:50:10;;;;;;;12.20;10.75;;;;;;;18.14;72.34;97311.00;1683293;85;25834;-77
2022/07/04 05:52:37;;;;;;;12.58;11.28;;;;;;;18.23;72.28;97312.98;1683465;85;25897;-76
2022/07/04 05:55:06;;;;;;;13.25;11.68;;;;;;;18.30;72.10;97317.70;1684957;84;25783;-77
2022/07/04 05:57:33;;;;;;;13.70;11.73;;;;;;;18.40;72.03;97322.94;1690275;84;27545;-77
2022/07/04 06:00:02;;;;;;;15.78;11.43;;;;;;;18.49;71.94;97324.91;1689966;84;25762;-76
2022/07/04 06:02:29;;;;;;;15.93;11.78;;;;;;;18.59;71.82;97331.87;1658919;86;25534;-78
2022/07/04 06:04:56;;;;;;;16.25;12.35;;;;;;;18.68;71.59;97331.64;1690321;84;25793;-76
2022/07/04 06:07:22;;;;;;;13.78;12.18;;;;;;;18.77;71.36;97330.59;1690387;84;25742;-76
2022/07/04 06:09:49;;;;;;;13.85;12.43;;;;;;;18.86;71.19;97330.34;1690346;84;27523;-77
2022/07/04 06:12:15;;;;;;;14.28;12.13;;;;;;;18.96;71.13;97332.30;1690390;84;25707;-77
2022/07/04 06:14:43;;;;;;;17.27;12.53;;;;;;;19.04;70.98;97342.76;1690332;84;26550;-77
2022/07/04 06:17:09;;;;;;;14.75;12.45;;;;;;;19.15;71.06;97343.63;1690356;84;25861;-76
2022/07/04 06:19:36;;;;;;;13.48;12.07;;;;;;;19.25;71.01;97338.19;1690389;84;26030;-76
2022/07/04 06:22:03;;;;;;;14.33;12.30;;;;;;;19.37;71.07;97340.14;1690249;84;28462;-77
2022/07/04 06:24:30;;;;;;;13.70;12.40;;;;;;;19.48;70.83;97336.34;1690446;84;25727;-76
2022/07/04 06:26:56;;;;;;;13.60;12.25;;;;;;;19.57;70.58;97333.92;1690513;84;25789;-76
2022/07/04 06:29:23;;;;;;;17.20;12.40;;;;;;;19.68;70.50;97335.03;1690402;84;25781;-77
2022/07/04 06:31:50;;;;;;;13.10;11.70;;;;;;;19.79;70.45;97333.16;1690382;84;25556;-77
2022/07/04 06:37:01;;;;;;;13.32;12.03;;;;;;;20.00;69.97;97332.08;1695999;83;25722;-78
2022/07/04 06:39:28;;;;;;;13.65;12.25;;;;;;;20.18;69.99;97325.21;1743352;80;25685;-77
2022/07/04 06:41:54;;;;;;;13.83;12.53;;;;;;;20.28;69.70;97322.49;1779889;80;25673;-78
2022/07/04 06:44:21;;;;;;;14.53;12.98;;;;;;;20.40;69.62;97314.02;1750275;81;25793;-77
2022/07/04 06:46:47;;;;;;;13.48;11.50;;;;;;;20.53;69.72;97315.36;1762335;80;28123;-78
2022/07/04 06:49:14;;;;;;;12.93;11.68;;;;;;;20.65;69.59;97311.77;1773271;80;25224;-77
2022/07/04 06:51:41;;;;;;;13.53;11.60;;;;;;;20.82;69.27;97306.22;1758211;80;25707;-76
2022/07/04 06:54:07;;;;;;;12.50;11.30;;;;;;;20.96;69.20;97309.20;1764053;80;25712;-77
2022/07/04 06:56:34;;;;;;;13.85;12.45;;;;;;;21.06;68.79;97295.98;1762610;80;25833;-76
2022/07/04 06:59:02;;;;;;;12.70;11.43;;;;;;;21.17;68.42;97299.77;1749786;81;27517;-77
2022/07/04 07:01:29;;;;;;;12.90;11.48;;;;;;;21.27;68.13;97298.92;1749940;80;25755;-77
2022/07/04 07:03:55;;;;;;;14.58;11.25;;;;;;;21.37;67.97;97302.19;1750172;81;25741;-77
2022/07/04 07:06:23;;;;;;;13.15;11.88;;;;;;;21.50;67.91;97295.50;1750341;81;25714;-76
2022/07/04 07:08:50;;;;;;;13.45;11.35;;;;;;;21.59;67.64;97298.48;1750259;81;25702;-77
2022/07/04 07:11:18;;;;;;;13.25;11.95;;;;;;;21.72;67.44;97299.78;1750176;81;27375;-77
2022/07/04 07:13:49;;;;;;;13.60;11.45;;;;;;;21.84;67.15;97298.31;1750206;82;25698;-77
2022/07/04 07:16:17;;;;;;;11.75;10.55;;;;;;;21.97;67.10;97299.59;1750295;82;25748;-77
2022/07/04 07:18:45;;;;;;;14.98;12.05;;;;;;;22.15;66.52;97302.20;1750128;82;25689;-79
2022/07/04 07:21:11;;;;;;;14.23;11.08;;;;;;;22.26;66.30;97293.58;1750237;82;25694;-79
2022/07/04 07:23:40;;;;;;;12.47;11.22;;;;;;;22.32;65.94;97279.25;1750145;82;27466;-78
2022/07/04 07:26:08;;;;;;;11.83;10.58;;;;;;;22.56;66.15;97289.73;1750102;80;25772;-77
2022/07/04 07:28:35;;;;;;;12.18;10.90;;;;;;;22.76;65.91;97292.84;1750271;81;25690;-78
2022/07/04 07:31:02;;;;;;;11.20;10.03;;;;;;;22.97;65.59;97275.52;1750361;81;25350;-77
2022/07/04 07:33:29;;;;;;;12.65;11.18;;;;;;;22.97;65.59;97275.52;1750373;81;25907;-79
2022/07/04 07:35:55;;;;;;;12.00;10.43;;;;;;;23.23;64.95;97295.30;1750091;81;28203;-78
2022/07/04 07:38:22;;;;;;;11.63;10.45;;;;;;;23.28;64.85;97275.41;1750167;80;25767;-78
2022/07/04 07:40:49;;;;;;;13.70;10.45;;;;;;;23.47;64.22;97294.69;1750260;82;25807;-80
2022/07/04 07:43:16;;;;;;;11.75;10.58;;;;;;;23.56;64.18;97294.87;1750329;82;26236;-80
2022/07/04 07:45:42;;;;;;;11.53;10.35;;;;;;;23.67;63.96;97295.80;1750210;82;25734;-78
2022/07/04 07:48:09;;;;;;;10.55;9.45;;;;;;;23.78;62.98;97290.16;1750232;81;27453;-77
2022/07/04 07:50:36;;;;;;;10.70;9.60;;;;;;;23.90;63.07;97289.97;1750043;81;25683;-78
2022/07/04 07:53:02;;;;;;;11.53;9.98;;;;;;;24.06;62.71;97291.34;1749986;82;26404;-77
2022/07/04 07:55:29;;;;;;;10.75;9.70;;;;;;;24.18;61.83;97287.30;1750278;81;25654;-77
2022/07/04 07:57:58;;;;;;;10.45;9.40;;;;;;;24.29;61.30;97288.78;1750430;81;25729;-76
2022/07/04 08:00:25;;;;;;;10.40;9.40;;;;;;;24.48;61.11;97279.91;1761470;79;28398;-78
2022/07/04 08:05:39;;;;;;;8.60;7.78;;;;;;;25.09;60.16;97273.23;1772946;80;25759;-78
2022/07/04 08:08:07;;;;;;;9.23;8.13;;;;;;;25.64;59.45;97289.73;1778627;80;25777;-80
2022/07/04 08:10:38;;;;;;;8.73;7.97;;;;;;;26.06;57.90;97285.14;1778050;80;25980;-79
2022/07/04 08:13:06;;;;;;;8.70;8.00;;;;;;;26.52;56.92;97281.23;1768087;80;27059;-79
2022/07/04 08:15:32;;;;;;;8.83;7.30;;;;;;;27.02;56.02;97279.63;1761896;81;25982;-78
2022/07/04 08:18:00;;;;;;;8.65;7.22;;;;;;;27.49;55.40;97289.86;1761882;81;25768;-80
2022/07/04 08:20:26;;;;;;;8.18;7.40;;;;;;;27.94;54.01;97281.27;1762170;81;26088;-78
2022/07/04 08:22:53;;;;;;;8.53;7.58;;;;;;;28.29;53.42;97280.13;1761978;81;25776;-78
2022/07/04 08:25:20;;;;;;;8.10;7.40;;;;;;;28.67;52.54;97276.61;1774241;80;28252;-76
2022/07/04 08:27:46;;;;;;;7.83;7.12;;;;;;;28.98;51.57;97278.56;1764964;80;25978;-76
2022/07/04 08:30:13;;;;;;;7.58;6.97;;;;;;;29.34;51.02;97274.48;1761979;81;25653;-77
2022/07/04 08:32:39;;;;;;;7.70;6.90;;;;;;;29.58;50.07;97274.69;1761900;81;25688;-78
2022/07/04 08:35:07;;;;;;;7.30;6.60;;;;;;;29.82;48.91;97275.98;1762187;81;25648;-77
2022/07/04 08:37:33;;;;;;;7.08;6.42;;;;;;;30.12;48.14;97277.55;1761909;81;28232;-77
2022/07/04 08:40:02;;;;;;;5.90;5.40;;;;;;;30.42;47.66;97279.07;1761863;81;25669;-78
2022/07/04 08:42:33;;;;;;;6.72;6.22;;;;;;;30.76;46.44;97281.27;1761987;81;25744;-76
2022/07/04 08:45:02;;;;;;;6.70;6.05;;;;;;;31.02;45.99;97280.39;1760325;80;26130;-76
2022/07/04 08:47:35;;;;;;;7.90;5.90;;;;;;;31.19;45.50;97285.52;1778252;80;25864;-78
2022/07/04 08:50:10;;;;;;;7.28;6.58;;;;;;;31.55;45.10;97282.71;1721045;83;27417;-78
2022/07/04 08:52:43;;;;;;;7.92;6.55;;;;;;;31.67;44.13;97280.52;1720867;83;25725;-78
2022/07/04 09:00:44;;;;;;;5.47;4.97;;;;;;;32.40;42.46;97288.11;1720937;83;25847;-77
2022/07/04 09:03:11;;;;;;;8.43;5.05;;;;;;;32.66;41.36;97286.23;1743940;81;28023;-78
2022/07/04 09:05:37;;;;;;;5.28;4.87;;;;;;;32.71;41.41;97286.56;1760111;81;26119;-76
2022/07/04 09:08:05;;;;;;;5.72;4.90;;;;;;;32.91;41.03;97282.73;1754653;81;25758;-77
2022/07/04 09:10:32;;;;;;;5.78;4.87;;;;;;;33.22;40.48;97291.70;1758638;81;26463;-79
2022/07/04 09:13:02;;;;;;;5.92;4.65;;;;;;;33.51;39.47;97279.26;1762123;81;25937;-77
2022/07/04 09:15:29;;;;;;;4.60;4.20;;;;;;;33.78;38.62;97285.91;1762276;81;27552;-77
2022/07/04 09:17:55;;;;;;;4.90;3.85;;;;;;;33.87;37.99;97284.52;1762331;81;25718;-77
2022/07/04 09:20:23;;;;;;;4.75;4.08;;;;;;;33.89;37.43;97284.97;1762055;81;25725;-78
2022/07/04 09:22:53;;;;;;;7.95;4.75;;;;;;;34.14;37.17;97282.70;1762085;81;25738;-76
2022/07/04 09:25:21;;;;;;;4.50;4.20;;;;;;;34.39;36.38;97285.24;1762059;81;25796;-77
2022/07/04 09:27:52;;;;;;;4.35;3.98;;;;;;;34.62;35.71;97281.31;1761992;81;27519;-76
2022/07/04 09:30:23;;;;;;;4.62;4.22;;;;;;;34.83;35.70;97282.91;1719751;83;25477;-76
2022/07/04 09:35:31;;;;;;;4.05;3.75;;;;;;;35.06;34.20;97275.31;1669869;84;25897;-77
2022/07/04 09:38:01;;;;;;;4.30;3.90;;;;;;;34.97;34.68;97272.77;1670125;84;25343;-78
2022/07/04 09:41:24;;;;;;;4.47;3.87;;;;;;;35.19;34.55;97273.94;1666234;84;27539;-77
2022/07/04 09:43:12;;;;;;;4.03;3.47;;;;;;;35.30;33.65;97274.14;1644594;85;25561;-77
2022/07/04 09:45:44;;;;;;;4.10;3.45;;;;;;;35.01;33.18;97273.65;1641750;85;25954;-77
2022/07/04 09:48:11;;;;;;;4.60;3.90;;;;;;;35.01;33.02;97275.64;1640690;86;25813;-79
2022/07/04 09:50:37;;;;;;;6.08;3.37;;;;;;;35.18;32.99;97281.32;1644798;87;26067;-78
2022/07/04 09:53:05;;;;;;;3.85;3.55;;;;;;;35.21;32.38;97281.98;1641331;85;27367;-76
2022/07/04 09:55:37;;;;;;;4.05;3.65;;;;;;;35.21;31.59;97274.97;1644886;85;25560;-74
2022/07/04 09:58:09;;;;;;;3.70;3.30;;;;;;;34.78;31.58;97281.83;1577709;90;25869;-76
2022/07/04 10:00:39;;;;;;;3.80;3.50;;;;;;;34.76;31.52;97275.78;1577966;90;26550;-76
2022/07/04 10:03:21;;;;;;;3.10;2.90;;;;;;;34.85;31.11;97272.14;1547891;91;25797;-78
2022/07/04 10:05:51;;;;;;;3.20;2.70;;;;;;;34.95;30.20;97267.30;1445792;99;27463;-76
2022/07/04 10:08:19;;;;;;;3.10;2.80;;;;;;;34.75;30.49;97255.91;1407466;101;26202;-74
2022/07/04 10:10:46;;;;;;;2.87;2.67;;;;;;;34.83;30.32;97265.50;1407320;101;25955;-77
2022/07/04 10:13:13;;;;;;;2.35;2.15;;;;;;;34.92;29.94;97262.44;1407416;101;26231;-76
2022/07/04 10:15:42;;;;;;;3.45;2.98;;;;;;;35.01;29.71;97258.81;1407620;101;25913;-76
2022/07/04 10:18:09;;;;;;;2.80;2.60;;;;;;;34.79;29.37;97249.78;1407523;101;27441;-76
2022/07/04 10:20:37;;;;;;;2.72;2.17;;;;;;;34.42;29.26;97249.45;1407087;101;26050;-76
2022/07/04 10:23:04;;;;;;;4.47;1.95;;;;;;;34.30;29.23;97255.44;1407390;101;25996;-77
2022/07/04 10:25:30;;;;;;;3.62;2.40;;;;;;;34.02;28.94;97251.23;1407379;101;25935;-77
2022/07/04 10:27:57;;;;;;;3.20;1.98;;;;;;;33.80;28.92;97252.19;1391504;101;26031;-77
2022/07/04 10:30:30;;;;;;;3.10;2.20;;;;;;;33.49;29.22;97253.62;1387295;103;27486;-77
2022/07/04 10:33:00;;;;;;;2.37;2.17;;;;;;;33.26;29.75;97255.69;1406397;101;25890;-76
2022/07/04 10:35:50;;;;;;;2.30;2.10;;;;;;;33.16;30.33;97261.81;1412254;101;26074;-76
2022/07/04 10:38:20;;;;;;;3.72;2.02;;;;;;;33.00;29.97;97257.38;1408753;101;25912;-77
2022/07/04 10:40:54;;;;;;;5.12;2.47;;;;;;;32.88;30.45;97254.09;1400656;101;26114;-77
2022/07/04 10:43:37;;;;;;;2.22;2.00;;;;;;;32.82;30.46;97249.95;1404524;101;27509;-80
2022/07/04 10:46:22;;;;;;;2.27;2.17;;;;;;;32.88;30.67;97252.70;1414477;99;25994;-79
2022/07/04 10:49:18;;;;;;;2.70;2.15;;;;;;;33.09;31.20;97242.04;1425752;99;25968;-76
2022/07/04 10:51:49;;;;;;;2.20;1.90;;;;;;;33.31;30.44;97244.02;1424889;99;25852;-76
2022/07/04 10:54:31;;;;;;;3.47;2.27;;;;;;;33.53;30.06;97234.94;1406125;101;25981;-77
2022/07/04 10:57:23;;;;;;;2.52;2.33;;;;;;;33.68;30.34;97238.28;1402972;102;28405;-78
2022/07/04 11:02:29;;;;;;;3.02;2.20;;;;;;;33.92;28.85;97232.45;1358931;103;25980;-79
2022/07/04 11:05:06;;;;;;;2.27;2.02;;;;;;;34.01;29.40;97227.20;1410086;100;32587;-77
2022/07/04 11:07:41;;;;;;;2.27;2.02;;;;;;;34.03;29.54;97226.25;1423141;100;25920;-77
2022/07/04 11:10:21;;;;;;;2.00;1.90;;;;;;;34.12;28.92;97228.23;1423159;100;27611;-78
2022/07/04 11:12:57;;;;;;;1.90;1.80;;;;;;;33.80;29.25;97228.39;1422732;100;25602;-78
2022/07/04 11:15:36;;;;;;;1.77;1.67;;;;;;;33.64;28.92;97227.59;1445824;97;25951;-77
2022/07/04 11:18:11;;;;;;;2.75;1.60;;;;;;;33.48;28.78;97222.62;1473230;97;25945;-79
2022/07/04 11:20:51;;;;;;;1.90;1.60;;;;;;;33.17;28.93;97228.48;1473082;97;25844;-77
2022/07/04 11:23:20;;;;;;;1.80;1.70;;;;;;;32.96;29.23;97221.56;1473067;97;27446;-79
2022/07/04 11:25:50;;;;;;;4.22;1.80;;;;;;;32.96;29.04;97220.97;1473084;96;25922;-79
2022/07/04 11:28:35;;;;;;;2.65;2.33;;;;;;;33.02;29.00;97222.30;1472618;96;25854;-76
2022/07/04 11:31:01;;;;;;;2.40;2.20;;;;;;;33.02;28.95;97217.30;1442518;98;25768;-77
2022/07/04 11:33:32;;;;;;;2.55;2.02;;;;;;;33.06;29.15;97223.80;1444971;99;25917;-79
2022/07/04 11:36:16;;;;;;;3.35;2.08;;;;;;;32.92;29.54;97218.66;1445182;99;28335;-78
2022/07/04 11:38:50;;;;;;;1.85;1.75;;;;;;;33.08;29.72;97216.68;1425517;99;25869;-76
2022/07/04 11:47:15;;;;;;;2.30;2.10;;;;;;;33.59;29.95;97206.88;1414319;99;25635;-76
2022/07/04 11:49:54;;;;;;;3.12;2.40;;;;;;;33.89;29.10;97209.97;1436109;99;27654;-75
2022/07/04 11:52:30;;;;;;;2.42;2.22;;;;;;;34.12;28.75;97214.23;1514701;92;25932;-75
2022/07/04 11:54:57;;;;;;;2.17;2.05;;;;;;;34.27;28.45;97211.37;1506670;94;25855;-76
2022/07/04 11:57:31;;;;;;;2.20;2.00;;;;;;;34.04;28.46;97204.08;1518939;92;26685;-75
2022/07/04 12:00:11;;;;;;;1.50;1.40;;;;;;;34.14;28.78;97204.88;1518298;93;25779;-74
2022/07/04 12:02:38;;;;;;;3.33;1.72;;;;;;;34.26;27.84;97213.96;1533235;91;27415;-76